Time;durP1;ratioP1;P1;durP2;ratioP2;P2;SDS_P1;SDS_P2;PMS_P1;PMS_P2;Temp;Humidity;BMP_temperature;BMP_pressure;BME280_temperature;BME280_humidity;BME280_pressure;Samples;Min_cycle;Max_cycle;Signal;HPM_P1;HPM_P2
2021/12/17 00:06:51;;;;;;;9.00;1.30;;;;;;;4.02;93.34;100866.71;103750;1314;24243;-30
2021/12/17 00:09:17;;;;;;;9.60;2.50;;;;;;;3.96;93.93;100872.27;103524;1314;23188;-30
2021/12/17 00:11:43;;;;;;;7.70;3.20;;;;;;;3.99;93.96;100872.80;103670;1310;24384;-26
2021/12/17 00:14:10;;;;;;;17.10;2.30;;;;;;;4.01;93.22;100868.35;103917;1310;22461;-30
2021/12/17 00:16:39;;;;;;;13.50;2.80;;;;;;;3.98;93.19;100876.92;103772;1314;24188;-26
2021/12/17 00:19:19;;;;;;;11.50;2.20;;;;;;;4.04;92.84;100881.39;103808;1313;22461;-30
2021/12/17 00:49:21;;;;;;;6.70;2.60;;;;;;;4.01;92.10;100892.80;103696;1310;24151;-30
2021/12/17 00:54:22;;;;;;;27.40;3.60;;;;;;;3.87;92.62;100894.45;103710;1314;24132;-30
2021/12/17 00:56:50;;;;;;;9.10;2.30;;;;;;;3.89;92.93;100891.77;103747;1307;24148;-26
2021/12/17 00:59:16;;;;;;;8.10;1.30;;;;;;;3.95;92.39;100885.98;103858;1314;24225;-30
2021/12/17 01:01:42;;;;;;;12.80;2.00;;;;;;;3.93;92.44;100888.14;103905;1313;24129;-30
2021/12/17 01:04:08;;;;;;;7.00;2.30;;;;;;;3.97;92.31;100892.44;103766;1310;22461;-26
2021/12/17 01:06:34;;;;;;;8.30;2.40;;;;;;;3.90;92.68;100895.98;103756;1310;24256;-30
2021/12/17 01:09:00;;;;;;;9.40;2.70;;;;;;;3.91;92.62;100896.82;103701;1314;24261;-30
2021/12/17 01:11:26;;;;;;;4.80;1.70;;;;;;;3.83;93.00;100900.59;103866;1310;25791;-29
2021/12/17 01:13:51;;;;;;;13.90;2.40;;;;;;;3.85;92.94;100903.79;103849;1313;22439;-26
2021/12/17 01:16:18;;;;;;;8.90;3.00;;;;;;;3.85;92.77;100898.67;103671;1314;24133;-26
2021/12/17 01:18:57;;;;;;;25.20;3.10;;;;;;;3.86;92.48;100897.30;103402;1311;25098;-26
2021/12/17 01:36:20;;;;;;;25.70;2.90;;;;;;;3.83;92.00;100867.48;103813;1314;24173;-30
2021/12/17 01:39:44;;;;;;;6.00;2.40;;;;;;;3.80;92.21;100871.77;103843;1314;24190;-26
2021/12/17 01:44:02;;;;;;;6.00;2.20;;;;;;;3.89;91.65;100875.69;103808;1314;22479;-26
2021/12/17 01:46:30;;;;;;;9.20;2.80;;;;;;;3.85;91.55;100869.81;103504;1314;24133;-26
2021/12/17 02:01:20;;;;;;;10.00;2.80;;;;;;;3.89;91.47;100871.25;103900;1307;24310;-30
2021/12/17 02:03:45;;;;;;;4.70;1.90;;;;;;;3.76;91.44;100876.63;103819;1314;24147;-26
2021/12/17 02:06:11;;;;;;;25.50;2.40;;;;;;;3.71;92.01;100880.75;103822;1310;24251;-26
2021/12/17 02:08:37;;;;;;;18.10;3.70;;;;;;;3.77;92.03;100875.70;103795;1314;24130;-26
2021/12/17 02:11:47;;;;;;;14.00;2.60;;;;;;;3.69;92.36;100882.34;103784;1314;23776;-26
2021/12/17 02:33:49;;;;;;;17.00;2.70;;;;;;;3.64;91.99;100902.67;103876;1307;23789;-26
2021/12/17 02:36:19;;;;;;;11.40;2.40;;;;;;;3.73;91.49;100900.95;103972;1307;24121;-30
2021/12/17 02:38:45;;;;;;;12.80;3.50;;;;;;;3.69;91.56;100906.10;103830;1313;24117;-26
2021/12/17 02:46:09;;;;;;;13.10;3.80;;;;;;;3.71;91.44;100897.60;104013;1314;22449;-29
2021/12/17 02:48:35;;;;;;;12.60;2.60;;;;;;;3.72;91.14;100893.96;103973;1314;22544;-29
2021/12/17 02:51:02;;;;;;;11.60;2.60;;;;;;;3.70;91.08;100898.17;103939;1314;22782;-27
2021/12/17 02:53:29;;;;;;;7.20;2.60;;;;;;;3.74;90.87;100898.05;103604;1314;24260;-30
2021/12/17 02:55:59;;;;;;;2.80;1.40;;;;;;;3.69;90.74;100893.61;104027;1314;23907;-30
2021/12/17 02:58:26;;;;;;;7.10;2.30;;;;;;;3.69;90.83;100887.07;103879;1314;24129;-26
2021/12/17 03:00:52;;;;;;;7.30;2.50;;;;;;;3.60;91.08;100880.48;103786;1313;24430;-30
2021/12/17 03:03:20;;;;;;;11.70;2.70;;;;;;;3.65;90.87;100878.16;103723;1313;24087;-26
2021/12/17 03:05:47;;;;;;;9.00;3.00;;;;;;;3.57;91.27;100880.95;103748;1302;22783;-30
2021/12/17 03:08:15;;;;;;;19.80;3.80;;;;;;;3.63;91.16;100875.86;103741;1314;24132;-26
2021/12/17 03:10:43;;;;;;;19.80;2.80;;;;;;;3.58;91.37;100867.75;103628;1312;22708;-30
2021/12/17 03:13:10;;;;;;;9.90;2.40;;;;;;;3.62;91.05;100858.61;103827;1308;24269;-30
2021/12/17 03:15:44;;;;;;;14.90;3.30;;;;;;;3.52;91.42;100848.02;103766;1313;24464;-30
2021/12/17 03:18:44;;;;;;;7.30;2.80;;;;;;;3.52;91.70;100852.83;103730;1313;24166;-26
2021/12/17 03:23:32;;;;;;;16.00;3.40;;;;;;;3.56;91.91;100855.13;103715;1314;24150;-26
2021/12/17 03:26:03;;;;;;;14.70;3.90;;;;;;;3.54;92.05;100862.73;103922;1314;24121;-30
2021/12/17 03:28:29;;;;;;;16.40;4.70;;;;;;;3.46;92.50;100866.69;103793;1316;22465;-30
2021/12/17 03:30:55;;;;;;;10.50;3.30;;;;;;;3.43;93.06;100860.39;103798;1314;24132;-30
2021/12/17 03:33:21;;;;;;;14.60;3.60;;;;;;;3.50;92.84;100851.49;103701;1314;24275;-26
2021/12/17 03:35:48;;;;;;;9.40;3.20;;;;;;;3.40;92.91;100846.44;103694;1310;24132;-30
2021/12/17 03:38:14;;;;;;;9.10;2.70;;;;;;;3.36;93.24;100852.60;103781;1310;24133;-30
2021/12/17 03:40:42;;;;;;;19.30;2.90;;;;;;;3.47;92.80;100841.98;103813;1313;25063;-30
2021/12/17 03:45:37;;;;;;;13.60;3.00;;;;;;;3.41;92.25;100824.42;103863;1314;24148;-26
2021/12/17 03:48:03;;;;;;;4.60;2.50;;;;;;;3.39;91.89;100818.34;103693;1310;24222;-29
2021/12/17 03:50:33;;;;;;;3.40;1.20;;;;;;;3.23;91.95;100821.11;103809;1314;24273;-26
2021/12/17 03:52:59;;;;;;;17.60;4.00;;;;;;;3.22;92.04;100821.92;103776;1311;22723;-30
2021/12/17 03:55:24;;;;;;;5.90;2.50;;;;;;;3.12;92.36;100813.13;103666;1314;24145;-30
2021/12/17 03:57:50;;;;;;;5.90;3.60;;;;;;;3.06;92.39;100812.13;103417;1313;463235;-30
2021/12/17 04:00:17;;;;;;;9.10;3.20;;;;;;;3.14;91.92;100811.20;103711;1314;22463;-26
2021/12/17 04:02:44;;;;;;;11.40;2.90;;;;;;;3.05;92.18;100813.80;103769;1310;22582;-30
2021/12/17 04:05:10;;;;;;;18.80;2.80;;;;;;;3.12;91.56;100812.42;103858;1314;24148;-27
2021/12/17 04:07:35;;;;;;;18.20;3.20;;;;;;;3.06;91.57;100811.07;103711;1314;24150;-27
2021/12/17 04:10:01;;;;;;;3.20;1.50;;;;;;;3.04;91.90;100809.28;103718;1314;24316;-30
2021/12/17 04:12:42;;;;;;;8.40;2.30;;;;;;;2.95;92.19;100815.11;103782;1315;24100;-26
2021/12/17 04:15:08;;;;;;;15.60;2.00;;;;;;;2.98;92.09;100825.10;103741;1314;22808;-26
2021/12/17 04:17:42;;;;;;;36.80;3.00;;;;;;;2.95;92.11;100829.07;103723;1311;24227;-30
2021/12/17 04:20:08;;;;;;;8.20;3.00;;;;;;;2.95;91.96;100837.88;103708;1311;24148;-27
2021/12/17 04:22:34;;;;;;;4.10;1.50;;;;;;;2.82;92.88;100840.77;103871;1314;22776;-30
2021/12/17 04:25:00;;;;;;;7.00;2.90;;;;;;;2.90;92.89;100843.40;103703;1310;24187;-30
2021/12/17 04:27:26;;;;;;;6.90;2.20;;;;;;;2.92;92.79;100843.81;103692;1314;24173;-26
2021/12/17 04:29:52;;;;;;;13.90;3.10;;;;;;;2.92;92.34;100837.64;104175;1314;24132;-26
2021/12/17 04:32:19;;;;;;;5.00;1.60;;;;;;;2.89;92.44;100835.87;103994;1314;22467;-26
2021/12/17 04:34:45;;;;;;;18.80;2.40;;;;;;;2.89;92.24;100829.89;103956;1315;25556;-26
2021/12/17 04:37:11;;;;;;;16.40;2.20;;;;;;;2.88;92.18;100830.98;103968;1314;22574;-26
2021/12/17 04:39:37;;;;;;;6.60;2.00;;;;;;;2.83;92.07;100822.84;103882;1313;24136;-26
2021/12/17 04:42:09;;;;;;;33.00;2.80;;;;;;;2.83;92.01;100813.16;103904;1314;24146;-30
2021/12/17 04:44:42;;;;;;;15.80;1.80;;;;;;;2.78;92.21;100816.15;103987;1302;22604;-26
2021/12/17 04:59:37;;;;;;;9.70;2.30;;;;;;;2.53;92.73;100818.30;103738;1313;25266;-26
2021/12/17 05:02:03;;;;;;;9.40;2.80;;;;;;;2.49;93.01;100824.95;103797;1313;24237;-26
2021/12/17 05:04:29;;;;;;;4.50;1.50;;;;;;;2.41;93.62;100837.40;103884;1316;22521;-27
2021/12/17 05:06:55;;;;;;;12.10;1.70;;;;;;;2.44;93.85;100840.67;103878;1315;24144;-28
2021/12/17 05:09:31;;;;;;;3.00;1.30;;;;;;;2.42;94.20;100835.20;103796;1314;24177;-30
2021/12/17 05:19:43;;;;;;;9.90;2.30;;;;;;;2.60;94.49;100831.62;103813;1313;22442;-30
2021/12/17 05:22:11;;;;;;;14.60;2.70;;;;;;;2.67;94.22;100837.48;103928;1313;24208;-26
2021/12/17 05:24:37;;;;;;;11.80;3.30;;;;;;;2.65;94.18;100842.52;104192;1314;24285;-26
2021/12/17 05:27:04;;;;;;;10.50;2.00;;;;;;;2.75;94.11;100840.45;103846;1314;24179;-30
2021/12/17 05:29:30;;;;;;;11.50;2.80;;;;;;;2.83;93.29;100836.98;104298;1314;25955;-26
2021/12/17 05:31:56;;;;;;;6.10;2.30;;;;;;;2.82;93.39;100838.37;104192;1307;22581;-27
2021/12/17 05:34:22;;;;;;;13.40;2.20;;;;;;;2.80;93.77;100837.95;103893;1314;24159;-26
2021/12/17 05:36:48;;;;;;;6.90;2.60;;;;;;;2.77;93.80;100845.54;103587;1313;23872;-26
2021/12/17 05:39:14;;;;;;;14.40;3.60;;;;;;;2.70;93.67;100847.65;104001;1316;23761;-30
2021/12/17 05:41:40;;;;;;;14.50;2.20;;;;;;;2.87;93.66;100839.75;103616;1313;24238;-26
2021/12/17 05:44:05;;;;;;;12.80;3.40;;;;;;;2.90;93.36;100837.08;103697;1315;24243;-30
2021/12/17 05:49:00;;;;;;;13.00;3.10;;;;;;;2.96;92.96;100834.66;104043;1313;24270;-26
2021/12/17 05:51:26;;;;;;;8.60;2.20;;;;;;;2.96;92.59;100829.88;103915;1314;22556;-29
2021/12/17 05:53:52;;;;;;;12.70;2.70;;;;;;;2.99;92.59;100847.17;104136;1314;23215;-30
2021/12/17 05:56:17;;;;;;;6.30;3.30;;;;;;;3.01;92.65;100854.79;103925;1316;24148;-26
2021/12/17 05:58:43;;;;;;;9.70;3.00;;;;;;;3.15;92.05;100850.05;103888;1314;24288;-27
2021/12/17 06:01:09;;;;;;;18.30;3.00;;;;;;;3.13;91.88;100851.09;103820;1315;24159;-27
2021/12/17 06:03:35;;;;;;;14.10;3.70;;;;;;;3.14;91.53;100857.39;104346;1314;22459;-26
2021/12/17 06:06:00;;;;;;;19.80;5.80;;;;;;;3.11;91.73;100865.41;104232;1313;23026;-30
2021/12/17 06:08:26;;;;;;;13.40;2.40;;;;;;;3.09;91.61;100876.33;104225;1314;22440;-30
2021/12/17 06:10:53;;;;;;;15.20;3.30;;;;;;;3.09;91.55;100876.34;103967;1315;25268;-30
2021/12/17 06:13:18;;;;;;;17.90;4.60;;;;;;;3.05;91.87;100869.69;104164;1314;24387;-30
2021/12/17 06:15:44;;;;;;;13.50;3.60;;;;;;;3.10;92.02;100873.11;104108;1314;22544;-29
2021/12/17 06:18:10;;;;;;;6.60;2.00;;;;;;;3.10;91.89;100875.19;103928;1305;24152;-29
2021/12/17 06:20:36;;;;;;;6.70;2.50;;;;;;;3.09;91.80;100871.39;103937;1314;22462;-30
2021/12/17 06:23:01;;;;;;;7.20;2.20;;;;;;;3.08;91.50;100876.02;103894;1313;22464;-26
2021/12/17 06:25:27;;;;;;;8.90;2.70;;;;;;;3.10;91.54;100874.52;103718;1314;24145;-26
2021/12/17 06:27:53;;;;;;;7.80;2.10;;;;;;;3.13;91.47;100879.59;103921;1313;22827;-26
2021/12/17 06:30:20;;;;;;;7.30;2.10;;;;;;;3.18;91.23;100884.73;103909;1315;24249;-26
2021/12/17 06:32:46;;;;;;;13.70;2.90;;;;;;;3.10;91.27;100887.24;103784;1315;24133;-26
2021/12/17 06:35:12;;;;;;;15.00;2.10;;;;;;;3.13;91.39;100883.86;103590;1316;22568;-26
2021/12/17 06:37:40;;;;;;;8.10;1.80;;;;;;;3.05;91.26;100882.30;103982;1314;22841;-26
2021/12/17 06:40:07;;;;;;;10.40;2.10;;;;;;;3.05;91.13;100881.56;104096;1307;25311;-30
2021/12/17 06:42:33;;;;;;;11.80;2.90;;;;;;;3.15;90.98;100878.20;104200;1315;24132;-26
2021/12/17 06:45:03;;;;;;;16.40;2.10;;;;;;;3.13;90.91;100878.76;104135;1314;24261;-25
2021/12/17 06:47:32;;;;;;;6.40;2.00;;;;;;;3.09;91.12;100881.82;103798;1316;22523;-26
2021/12/17 07:00:13;;;;;;;8.60;2.10;;;;;;;3.13;89.90;100875.66;104475;1314;22466;-30
2021/12/17 07:17:12;;;;;;;11.90;2.80;;;;;;;3.19;89.69;100872.92;104216;1314;24162;-26
2021/12/17 07:20:55;;;;;;;11.00;3.60;;;;;;;3.09;89.82;100883.62;103803;1315;24025;-26
2021/12/17 07:23:10;;;;;;;7.80;2.50;;;;;;;3.20;89.47;100881.02;104080;1313;22723;-26
2021/12/17 07:28:14;;;;;;;17.80;3.30;;;;;;;3.23;89.85;100872.67;104211;1314;22685;-26
2021/12/17 07:36:06;;;;;;;7.30;2.60;;;;;;;3.31;89.73;100875.63;103992;1314;24146;-30
2021/12/17 07:41:02;;;;;;;8.90;3.10;;;;;;;3.23;89.94;100872.27;104202;1302;22602;-26
2021/12/17 07:43:36;;;;;;;9.30;2.60;;;;;;;3.27;90.00;100864.51;103756;1314;24180;-29
2021/12/17 07:46:04;;;;;;;8.40;3.70;;;;;;;3.26;89.55;100861.42;104069;1314;22463;-29
2021/12/17 07:48:30;;;;;;;8.20;3.10;;;;;;;3.23;89.57;100858.48;103973;1311;22719;-26
2021/12/17 07:50:57;;;;;;;10.60;3.90;;;;;;;3.23;89.46;100856.55;103808;1310;24312;-26
2021/12/17 07:53:23;;;;;;;12.70;2.80;;;;;;;3.28;89.69;100862.35;103690;1310;24144;-26
2021/12/17 07:55:48;;;;;;;10.30;3.40;;;;;;;3.33;89.71;100866.64;103727;1314;24147;-26
2021/12/17 07:58:15;;;;;;;24.70;4.20;;;;;;;3.36;89.14;100865.67;103902;1316;22442;-26
2021/12/17 08:00:41;;;;;;;9.90;2.80;;;;;;;3.39;88.72;100873.63;103742;1316;24132;-30
2021/12/17 08:03:07;;;;;;;5.70;2.40;;;;;;;3.48;88.31;100873.98;103770;1314;24125;-25
2021/12/17 08:05:34;;;;;;;19.20;3.40;;;;;;;3.46;88.52;100871.99;103487;1314;23793;-29
2021/12/17 08:08:00;;;;;;;4.90;1.70;;;;;;;3.44;88.57;100875.16;103606;1316;22447;-29
2021/12/17 08:10:26;;;;;;;9.90;3.00;;;;;;;3.44;88.99;100876.55;103716;1314;22489;-30
2021/12/17 08:12:55;;;;;;;10.60;2.50;;;;;;;3.44;88.89;100874.46;103732;1308;24240;-26
2021/12/17 08:15:28;;;;;;;7.20;3.00;;;;;;;3.42;88.79;100870.56;103640;1316;24245;-30
2021/12/17 08:25:28;;;;;;;20.90;3.90;;;;;;;3.57;88.47;100883.37;103771;1314;24135;-29
2021/12/17 08:30:24;;;;;;;21.80;3.60;;;;;;;3.63;87.09;100878.73;103694;1314;24158;-26
2021/12/17 08:32:51;;;;;;;8.70;3.30;;;;;;;3.59;87.98;100885.55;103719;1306;24204;-26
2021/12/17 08:35:16;;;;;;;14.20;3.90;;;;;;;3.70;87.79;100881.73;103732;1314;24159;-25
2021/12/17 08:37:42;;;;;;;8.50;3.40;;;;;;;3.65;87.89;100895.70;103673;1314;24240;-27
2021/12/17 08:40:09;;;;;;;13.80;3.30;;;;;;;3.68;87.42;100902.20;103669;1314;24256;-26
2021/12/17 08:42:35;;;;;;;11.50;3.40;;;;;;;3.68;87.58;100899.72;103898;1313;24148;-26
2021/12/17 08:45:03;;;;;;;9.80;2.60;;;;;;;3.70;87.70;100903.67;103811;1312;24256;-30
2021/12/17 08:47:28;;;;;;;12.30;3.80;;;;;;;3.65;87.98;100896.21;104302;1313;22449;-26
2021/12/17 08:49:55;;;;;;;8.20;4.00;;;;;;;3.75;87.77;100896.02;104100;1314;22488;-26
2021/12/17 08:52:21;;;;;;;13.90;4.90;;;;;;;3.77;88.05;100899.48;103804;1314;22549;-25
2021/12/17 08:54:46;;;;;;;13.80;4.80;;;;;;;3.81;87.63;100889.41;104329;1314;24199;-29
2021/12/17 08:57:12;;;;;;;14.90;5.40;;;;;;;3.70;87.73;100890.79;103670;1305;24135;-30
2021/12/17 08:59:38;;;;;;;18.50;4.90;;;;;;;3.75;87.33;100894.62;103900;1314;22464;-26
2021/12/17 09:02:05;;;;;;;11.90;4.30;;;;;;;3.66;87.71;100899.73;104096;1313;22737;-29
2021/12/17 09:04:31;;;;;;;13.10;5.40;;;;;;;3.73;87.12;100894.54;103818;1314;24137;-26
2021/12/17 09:06:57;;;;;;;17.20;5.90;;;;;;;3.71;87.30;100897.71;104202;1311;22766;-29
2021/12/17 09:09:23;;;;;;;14.70;6.60;;;;;;;3.76;87.62;100896.13;103905;1314;24120;-29
2021/12/17 09:11:50;;;;;;;11.90;4.90;;;;;;;3.87;86.79;100888.89;103698;1314;22469;-25
2021/12/17 09:14:19;;;;;;;20.90;6.40;;;;;;;3.81;87.02;100889.23;104223;1314;25268;-26
2021/12/17 09:16:47;;;;;;;21.50;7.30;;;;;;;3.84;86.81;100895.75;103536;1314;24287;-26
2021/12/17 09:19:13;;;;;;;16.90;4.80;;;;;;;3.86;86.19;100904.95;104229;1316;24131;-29
2021/12/17 09:21:39;;;;;;;15.50;6.10;;;;;;;3.83;86.67;100911.16;103967;1314;22465;-29
2021/12/17 09:24:05;;;;;;;10.80;5.70;;;;;;;3.88;86.46;100917.56;104183;1314;24234;-26
2021/12/17 09:26:33;;;;;;;15.40;6.10;;;;;;;3.83;85.80;100918.48;103936;1314;22544;-26
2021/12/17 09:28:59;;;;;;;8.90;4.50;;;;;;;3.70;85.42;100916.58;104250;1314;22437;-30
2021/12/17 09:31:25;;;;;;;8.70;5.30;;;;;;;3.59;85.49;100918.85;103963;1316;22454;-25
2021/12/17 09:33:51;;;;;;;16.90;6.10;;;;;;;3.70;85.66;100915.72;103854;1305;24148;-29
2021/12/17 09:36:18;;;;;;;14.20;6.30;;;;;;;3.76;85.71;100926.45;103821;1316;22472;-29
2021/12/17 09:38:49;;;;;;;17.70;7.80;;;;;;;3.79;86.26;100924.10;103770;1314;22466;-26
2021/12/17 09:41:17;;;;;;;18.20;7.70;;;;;;;3.64;86.17;100920.47;104204;1314;22606;-30
2021/12/17 09:43:43;;;;;;;13.10;6.60;;;;;;;3.46;86.49;100922.52;103695;1314;24144;-26
2021/12/17 09:46:09;;;;;;;11.40;5.20;;;;;;;3.50;86.37;100922.52;104150;1309;23867;-26
2021/12/17 09:48:35;;;;;;;13.90;8.70;;;;;;;3.59;86.33;100923.23;103997;1311;24274;-30
2021/12/17 09:51:03;;;;;;;19.00;7.30;;;;;;;3.65;86.18;100924.98;103916;1314;22493;-30
2021/12/17 09:53:29;;;;;;;22.40;8.80;;;;;;;3.74;85.85;100916.98;104227;1314;24480;-29
2021/12/17 09:55:55;;;;;;;14.40;8.10;;;;;;;3.60;85.67;100917.21;104195;1314;22645;-25
2021/12/17 09:58:20;;;;;;;16.60;7.00;;;;;;;3.58;85.90;100920.18;104364;1307;24203;-28
2021/12/17 10:00:46;;;;;;;15.80;8.10;;;;;;;3.58;85.87;100915.94;104108;1314;24219;-26
2021/12/17 10:03:12;;;;;;;16.50;8.60;;;;;;;3.62;85.59;100909.95;104027;1308;24133;-26
2021/12/17 10:05:39;;;;;;;21.60;8.80;;;;;;;3.57;84.99;100919.04;103897;1314;22596;-29
2021/12/17 10:08:11;;;;;;;35.40;8.30;;;;;;;3.49;85.79;100920.89;103950;1312;22469;-30
2021/12/17 10:10:37;;;;;;;14.70;7.50;;;;;;;3.50;85.71;100922.37;104215;1311;24154;-29
2021/12/17 10:13:10;;;;;;;22.10;8.80;;;;;;;3.59;85.45;100923.45;103944;1314;24189;-29
2021/12/17 10:15:37;;;;;;;21.40;8.70;;;;;;;3.70;84.91;100922.80;104198;1313;22480;-29
2021/12/17 10:18:03;;;;;;;16.00;6.00;;;;;;;3.59;85.39;100919.00;104412;1314;22463;-30
2021/12/17 10:20:31;;;;;;;14.00;7.90;;;;;;;3.42;85.75;100925.23;104233;1305;24121;-26
2021/12/17 10:22:59;;;;;;;19.40;8.00;;;;;;;3.43;86.63;100918.42;104009;1314;24251;-25
2021/12/17 10:25:27;;;;;;;16.70;7.30;;;;;;;3.52;86.41;100921.88;104090;1315;24296;-26
2021/12/17 10:27:57;;;;;;;18.50;9.20;;;;;;;3.47;85.73;100916.71;104048;1316;22536;-30
2021/12/17 10:30:23;;;;;;;21.30;7.20;;;;;;;3.52;85.83;100913.89;103913;1311;25268;-29
2021/12/17 10:32:51;;;;;;;26.40;9.70;;;;;;;3.36;85.25;100915.75;104173;1310;22578;-29
2021/12/17 10:35:19;;;;;;;16.10;5.10;;;;;;;3.51;85.27;100914.65;104117;1310;22485;-25
2021/12/17 10:37:51;;;;;;;13.50;7.60;;;;;;;3.54;84.53;100912.81;103954;1314;24280;-25
2021/12/17 10:40:18;;;;;;;21.40;8.10;;;;;;;3.40;84.45;100909.80;103942;1316;22650;-29
2021/12/17 10:42:53;;;;;;;21.10;7.90;;;;;;;3.53;84.52;100905.84;103887;1314;22467;-29
2021/12/17 10:45:25;;;;;;;21.00;7.40;;;;;;;3.42;85.69;100911.98;103516;1308;24147;-29
2021/12/17 10:48:01;;;;;;;17.70;6.60;;;;;;;3.51;86.26;100899.79;103810;1308;24233;-32
2021/12/17 10:50:28;;;;;;;14.40;8.50;;;;;;;3.57;85.74;100887.63;104055;1315;22490;-26
2021/12/17 10:52:56;;;;;;;16.20;8.90;;;;;;;3.64;84.97;100883.61;103703;1314;24144;-30
2021/12/17 10:55:23;;;;;;;24.20;5.30;;;;;;;3.59;85.02;100878.30;104061;1310;24159;-30
2021/12/17 10:57:49;;;;;;;15.00;7.40;;;;;;;3.64;84.63;100876.00;103838;1314;24247;-30
2021/12/17 11:00:16;;;;;;;19.20;7.20;;;;;;;3.60;84.85;100883.38;103709;1314;23916;-26
2021/12/17 11:02:48;;;;;;;31.60;7.60;;;;;;;3.64;84.63;100887.98;103822;1314;24241;-26
2021/12/17 11:05:14;;;;;;;13.70;5.90;;;;;;;3.69;84.17;100891.02;103863;1307;24297;-30
2021/12/17 11:07:44;;;;;;;14.40;6.70;;;;;;;3.85;83.76;100888.73;103822;1314;24177;-30
2021/12/17 11:10:10;;;;;;;21.20;8.40;;;;;;;3.67;84.92;100897.50;103715;1314;22465;-30
2021/12/17 11:12:38;;;;;;;22.50;7.70;;;;;;;3.66;85.07;100890.15;103749;1313;24241;-30
2021/12/17 11:15:12;;;;;;;16.20;5.60;;;;;;;3.62;85.12;100897.02;103794;1314;24165;-26
2021/12/17 11:17:39;;;;;;;14.20;6.10;;;;;;;3.61;85.71;100897.08;103911;1307;23825;-27
2021/12/17 11:20:09;;;;;;;15.40;5.80;;;;;;;3.65;85.14;100886.69;103527;1314;24396;-27
2021/12/17 11:22:37;;;;;;;17.50;5.90;;;;;;;3.63;85.67;100890.35;103906;1313;24146;-25
2021/12/17 11:25:03;;;;;;;14.60;5.20;;;;;;;3.56;85.90;100893.36;103735;1311;22439;-25
2021/12/17 11:27:29;;;;;;;19.80;5.00;;;;;;;3.55;85.95;100892.44;103779;1314;24144;-29
2021/12/17 11:29:55;;;;;;;21.00;5.80;;;;;;;3.50;86.14;100891.70;103747;1312;24242;-28
2021/12/17 11:32:21;;;;;;;14.30;6.30;;;;;;;3.58;85.42;100890.45;103756;1314;24145;-25
2021/12/17 11:34:47;;;;;;;6.40;3.30;;;;;;;3.55;85.81;100886.41;104087;1308;24148;-29
2021/12/17 11:37:13;;;;;;;15.70;5.50;;;;;;;3.58;85.48;100890.27;103715;1313;24148;-25
2021/12/17 11:39:42;;;;;;;11.50;3.70;;;;;;;3.55;85.25;100881.74;103923;1315;23915;-25
2021/12/17 11:42:16;;;;;;;13.90;3.90;;;;;;;3.49;84.30;100878.88;104093;1313;25306;-25
2021/12/17 11:44:52;;;;;;;12.90;4.00;;;;;;;3.41;84.74;100878.94;103744;1310;24171;-25
2021/12/17 11:47:18;;;;;;;9.90;4.20;;;;;;;3.31;85.54;100882.00;103854;1307;24170;-25
2021/12/17 11:49:49;;;;;;;9.40;3.10;;;;;;;3.42;85.71;100877.61;104111;1313;22558;-29
2021/12/17 11:52:36;;;;;;;9.20;3.70;;;;;;;3.44;85.58;100869.85;104083;1314;22818;-29
2021/12/17 11:55:09;;;;;;;11.20;3.60;;;;;;;3.48;85.63;100867.23;103860;1311;22442;-25
2021/12/17 11:57:40;;;;;;;9.00;3.30;;;;;;;3.58;85.77;100867.08;103856;1314;23004;-25
2021/12/17 12:00:13;;;;;;;18.50;3.70;;;;;;;3.54;85.83;100860.27;103455;1315;24236;-29
2021/12/17 12:02:46;;;;;;;7.00;4.90;;;;;;;3.46;86.06;100862.83;103764;1314;24310;-29
2021/12/17 12:05:14;;;;;;;5.30;2.40;;;;;;;3.49;86.35;100858.52;103907;1314;22892;-25
2021/12/17 12:07:40;;;;;;;3.80;1.70;;;;;;;3.64;85.91;100855.93;103967;1314;24236;-29
2021/12/17 12:10:08;;;;;;;11.50;3.00;;;;;;;3.59;85.43;100860.05;103920;1314;24250;-29
2021/12/17 12:12:34;;;;;;;11.50;3.20;;;;;;;3.65;86.17;100864.42;103756;1314;22471;-25
2021/12/17 12:15:22;;;;;;;11.60;4.80;;;;;;;3.73;85.22;100862.22;103929;1307;22545;-29
2021/12/17 12:18:12;;;;;;;11.30;3.30;;;;;;;3.48;85.53;100872.54;103900;1314;22473;-30
2021/12/17 12:20:50;;;;;;;6.90;2.30;;;;;;;3.45;86.23;100885.54;103862;1314;24229;-30
2021/12/17 12:23:20;;;;;;;11.60;2.80;;;;;;;3.59;86.19;100877.03;104033;1316;22664;-29
2021/12/17 12:26:08;;;;;;;12.10;3.40;;;;;;;3.58;85.77;100874.08;104045;1307;24133;-26
2021/12/17 12:28:57;;;;;;;12.90;3.50;;;;;;;3.55;85.91;100868.89;103929;1310;22599;-30
2021/12/17 12:31:25;;;;;;;5.80;3.50;;;;;;;3.66;85.56;100863.58;104151;1314;24155;-30
2021/12/17 12:33:57;;;;;;;13.50;3.10;;;;;;;3.66;84.65;100862.17;104247;1314;24118;-29
2021/12/17 12:36:30;;;;;;;6.20;1.90;;;;;;;3.83;83.72;100862.52;103989;1315;22577;-26
2021/12/17 12:39:13;;;;;;;7.00;1.90;;;;;;;3.72;84.02;100869.00;103906;1314;23151;-26
2021/12/17 12:41:44;;;;;;;8.70;3.00;;;;;;;3.68;84.35;100865.39;103789;1314;24148;-29
2021/12/17 12:44:09;;;;;;;6.30;2.70;;;;;;;3.67;84.50;100860.48;103910;1310;24219;-27
2021/12/17 12:46:42;;;;;;;8.40;2.90;;;;;;;3.64;84.78;100862.85;104068;1311;22464;-27
2021/12/17 12:49:16;;;;;;;15.10;3.10;;;;;;;3.57;84.87;100862.00;104288;1310;24209;-30
2021/12/17 12:51:42;;;;;;;13.10;3.50;;;;;;;3.60;85.39;100858.19;104138;1307;24130;-31
2021/12/17 12:54:09;;;;;;;24.80;3.50;;;;;;;3.62;85.16;100860.04;104059;1308;24115;-27
2021/12/17 12:56:38;;;;;;;6.10;2.20;;;;;;;3.64;85.27;100852.93;103791;1314;24298;-30
2021/12/17 12:59:04;;;;;;;9.60;3.00;;;;;;;3.77;85.00;100847.38;103708;1314;24202;-30
2021/12/17 13:01:30;;;;;;;9.60;2.80;;;;;;;3.82;84.16;100850.34;103716;1314;24118;-31
2021/12/17 13:03:55;;;;;;;7.40;2.60;;;;;;;3.79;84.62;100852.03;103656;1314;24148;-26
2021/12/17 13:06:22;;;;;;;9.20;3.40;;;;;;;3.71;84.54;100852.06;103737;1313;24373;-31
2021/12/17 13:08:52;;;;;;;11.30;3.10;;;;;;;3.75;84.80;100854.76;103611;1314;24144;-27
2021/12/17 13:11:19;;;;;;;6.60;2.60;;;;;;;3.78;84.40;100862.69;103672;1310;24205;-30
2021/12/17 13:13:52;;;;;;;11.60;3.30;;;;;;;3.69;84.41;100864.82;103565;1310;22742;-30
2021/12/17 13:16:34;;;;;;;13.90;3.70;;;;;;;3.68;84.78;100851.18;103760;1314;22444;-30
2021/12/17 13:26:28;;;;;;;4.80;2.50;;;;;;;3.75;84.27;100844.64;103746;1314;24133;-31
2021/12/17 13:29:03;;;;;;;8.10;1.80;;;;;;;3.69;84.50;100850.79;103860;1304;24269;-27
2021/12/17 13:31:31;;;;;;;23.60;2.80;;;;;;;3.72;84.19;100843.66;103760;1307;22476;-26
2021/12/17 13:33:57;;;;;;;8.60;2.50;;;;;;;3.61;84.27;100849.80;103709;1310;24246;-27
2021/12/17 13:36:22;;;;;;;5.40;1.30;;;;;;;3.65;84.58;100847.55;103755;1314;24144;-27
2021/12/17 13:38:56;;;;;;;7.20;2.50;;;;;;;3.69;84.53;100856.13;103587;1314;24192;-27
2021/12/17 13:41:33;;;;;;;5.70;2.00;;;;;;;3.73;84.60;100859.51;103751;1314;25308;-26
2021/12/17 13:43:59;;;;;;;4.10;1.70;;;;;;;3.65;84.48;100867.55;103766;1310;24234;-27
2021/12/17 13:46:27;;;;;;;8.20;3.00;;;;;;;3.60;84.63;100868.54;103721;1310;24323;-28
2021/12/17 13:48:53;;;;;;;4.10;2.20;;;;;;;3.55;84.45;100871.53;103724;1313;24374;-30
2021/12/17 13:51:19;;;;;;;7.70;2.30;;;;;;;3.67;83.85;100873.41;103642;1314;24305;-27
2021/12/17 13:53:45;;;;;;;6.30;2.10;;;;;;;3.57;84.63;100871.23;103700;1310;24133;-27
2021/12/17 13:56:15;;;;;;;7.70;2.60;;;;;;;3.57;84.90;100866.23;103757;1310;24121;-26
2021/12/17 13:58:41;;;;;;;7.40;2.70;;;;;;;3.53;85.05;100861.89;103576;1310;22442;-26
2021/12/17 14:01:07;;;;;;;14.10;2.80;;;;;;;3.56;85.03;100859.21;103802;1314;24212;-30
2021/12/17 14:03:34;;;;;;;12.20;2.70;;;;;;;3.50;84.86;100860.70;103488;1314;24133;-27
2021/12/17 14:08:29;;;;;;;13.40;2.30;;;;;;;3.52;85.26;100856.69;103702;1314;24981;-30
2021/12/17 14:10:56;;;;;;;5.20;2.80;;;;;;;3.46;85.65;100868.45;103736;1313;24144;-30
2021/12/17 14:13:23;;;;;;;7.20;2.70;;;;;;;3.46;85.54;100870.59;103926;1310;24247;-30
2021/12/17 14:15:51;;;;;;;7.70;1.70;;;;;;;3.35;85.32;100881.89;103801;1311;24464;-30
2021/12/17 14:18:21;;;;;;;7.40;2.40;;;;;;;3.33;85.45;100886.64;103990;1310;24242;-27